Time;durP1;ratioP1;P1;durP2;ratioP2;P2;SDS_P1;SDS_P2;PMS_P1;PMS_P2;Temp;Humidity;BMP_temperature;BMP_pressure;BME280_temperature;BME280_humidity;BME280_pressure;Samples;Min_cycle;Max_cycle;Signal;HPM_P1;HPM_P2
2021/04/17 00:01:55;;;;;;;2.22;0.85;;;6.70;99.90;;;;;;3602027;39;20729;-62
2021/04/17 00:04:22;;;;;;;3.22;1.10;;;6.70;99.90;;;;;;3601238;39;20442;-62
2021/04/17 00:06:49;;;;;;;3.45;1.05;;;6.70;99.90;;;;;;3599630;39;20054;-62
2021/04/17 00:09:18;;;;;;;4.13;1.02;;;6.70;99.90;;;;;;3599529;39;20024;-60
2021/04/17 00:11:46;;;;;;;2.15;1.02;;;6.70;99.90;;;;;;3598325;39;20490;-60
2021/04/17 00:14:20;;;;;;;3.50;1.25;;;6.80;99.90;;;;;;3598920;39;20032;-60
2021/04/17 00:16:46;;;;;;;6.68;1.27;;;6.80;99.90;;;;;;3599829;39;20448;-60
2021/04/17 00:19:12;;;;;;;2.72;1.00;;;6.90;99.90;;;;;;3600292;39;20401;-60
2021/04/17 00:21:38;;;;;;;3.78;1.30;;;6.90;99.90;;;;;;3600781;39;20044;-60
2021/04/17 00:24:04;;;;;;;4.75;1.00;;;6.90;99.90;;;;;;3601475;39;20039;-63
2021/04/17 00:26:30;;;;;;;3.72;1.25;;;6.80;99.90;;;;;;3602522;39;20128;-60
2021/04/17 00:28:57;;;;;;;5.82;1.35;;;6.60;99.90;;;;;;3603387;39;20398;-60
2021/04/17 00:31:23;;;;;;;1.75;1.17;;;6.60;99.90;;;;;;3603748;39;20035;-60
2021/04/17 00:33:49;;;;;;;2.75;1.20;;;6.60;99.90;;;;;;3603661;39;20031;-60
2021/04/17 00:36:14;;;;;;;5.43;1.40;;;6.70;99.90;;;;;;3605921;39;20066;-60
2021/04/17 00:38:40;;;;;;;6.85;1.20;;;6.70;99.90;;;;;;3607360;39;20806;-60
2021/04/17 00:41:06;;;;;;;6.20;1.65;;;6.80;99.90;;;;;;3607901;39;20641;-60
2021/04/17 00:43:32;;;;;;;3.72;1.20;;;6.80;99.90;;;;;;3607964;39;20019;-60
2021/04/17 00:45:59;;;;;;;2.83;1.10;;;6.70;99.90;;;;;;3607088;39;20071;-60
2021/04/17 00:48:24;;;;;;;3.50;1.27;;;6.60;99.90;;;;;;3606028;39;20027;-60
2021/04/17 00:50:50;;;;;;;4.78;1.55;;;6.60;99.90;;;;;;3605802;39;20035;-60
2021/04/17 00:53:16;;;;;;;6.57;1.27;;;6.60;99.90;;;;;;3605841;39;20646;-60
2021/04/17 00:55:42;;;;;;;4.47;1.10;;;6.60;99.90;;;;;;3605045;39;20024;-65
2021/04/17 00:58:08;;;;;;;5.68;1.35;;;6.70;99.90;;;;;;3603471;39;20135;-66
2021/04/17 01:00:36;;;;;;;4.00;1.30;;;6.60;99.90;;;;;;3600933;39;20554;-66
2021/04/17 01:03:19;;;;;;;6.10;1.60;;;6.60;99.90;;;;;;3604346;39;20036;-67
2021/04/17 01:05:51;;;;;;;2.58;1.08;;;6.70;99.90;;;;;;3602237;39;20135;-66
2021/04/17 01:08:23;;;;;;;2.28;1.10;;;6.70;99.90;;;;;;3601443;39;20034;-66
2021/04/17 01:10:58;;;;;;;15.88;1.33;;;6.60;99.90;;;;;;3602997;39;20441;-66
2021/04/17 01:13:25;;;;;;;8.50;1.45;;;6.60;99.90;;;;;;3601732;39;20091;-66
2021/04/17 01:15:52;;;;;;;4.60;1.50;;;6.60;99.90;;;;;;3601624;39;20027;-66
2021/04/17 01:18:19;;;;;;;1.80;1.00;;;6.60;99.90;;;;;;3603763;39;20544;-66
2021/04/17 01:20:47;;;;;;;4.22;1.38;;;6.60;99.90;;;;;;3602694;39;20031;-66
2021/04/17 01:23:24;;;;;;;5.22;1.30;;;6.60;99.90;;;;;;3604159;39;20043;-66
2021/04/17 01:25:58;;;;;;;1.75;1.00;;;6.60;99.90;;;;;;3604122;39;20031;-66
2021/04/17 01:28:26;;;;;;;3.97;1.10;;;6.60;99.90;;;;;;3603456;39;20055;-66
2021/04/17 01:30:53;;;;;;;1.80;1.05;;;6.60;99.90;;;;;;3603980;39;20297;-66
2021/04/17 01:33:23;;;;;;;6.13;1.25;;;6.60;99.90;;;;;;3602560;39;20032;-67
2021/04/17 01:35:50;;;;;;;5.65;2.08;;;6.50;99.90;;;;;;3606793;39;20035;-66
2021/04/17 01:38:26;;;;;;;6.18;1.30;;;6.50;99.90;;;;;;3605033;39;20039;-66
2021/04/17 01:41:01;;;;;;;3.72;1.70;;;6.50;99.90;;;;;;3604117;39;20324;-66
2021/04/17 01:43:28;;;;;;;4.20;1.20;;;6.50;99.90;;;;;;3607392;39;20035;-66
2021/04/17 01:45:59;;;;;;;4.57;1.02;;;6.60;99.90;;;;;;3601588;39;20136;-67
2021/04/17 01:48:29;;;;;;;3.33;1.30;;;6.60;99.90;;;;;;3603578;39;20034;-60
2021/04/17 01:50:57;;;;;;;2.83;1.27;;;6.50;99.90;;;;;;3600326;39;20913;-61
2021/04/17 01:53:27;;;;;;;5.18;1.38;;;6.60;99.90;;;;;;3603431;39;20035;-60
2021/04/17 01:55:55;;;;;;;4.28;2.08;;;6.50;99.90;;;;;;3603435;39;20140;-60
2021/04/17 01:58:27;;;;;;;4.35;1.20;;;6.50;99.90;;;;;;3604966;39;20047;-60
2021/04/17 02:00:55;;;;;;;10.50;1.35;;;6.50;99.90;;;;;;3597202;39;20055;-60
2021/04/17 02:03:21;;;;;;;2.75;1.33;;;6.50;99.90;;;;;;3601298;39;20416;-60
2021/04/17 02:05:48;;;;;;;4.53;2.65;;;6.50;99.90;;;;;;3599586;39;20047;-60
2021/04/17 02:08:15;;;;;;;2.95;1.23;;;6.40;99.90;;;;;;3598654;39;20042;-60
2021/04/17 02:10:41;;;;;;;3.05;1.42;;;6.30;99.90;;;;;;3597661;39;20093;-62
2021/04/17 02:13:08;;;;;;;4.05;1.23;;;6.10;99.90;;;;;;3607081;39;20120;-60
2021/04/17 02:15:39;;;;;;;3.83;1.27;;;6.10;99.90;;;;;;3606562;39;20545;-60
2021/04/17 02:18:27;;;;;;;6.65;1.30;;;6.20;99.90;;;;;;3606647;39;20075;-60
2021/04/17 02:21:02;;;;;;;5.93;1.30;;;6.20;99.90;;;;;;3606289;39;20274;-60
2021/04/17 02:23:29;;;;;;;3.47;1.50;;;6.30;99.90;;;;;;3605653;39;20036;-60
2021/04/17 02:25:56;;;;;;;3.65;1.48;;;6.40;99.90;;;;;;3605316;39;20046;-62
2021/04/17 02:28:24;;;;;;;2.42;1.27;;;6.30;99.90;;;;;;3604211;39;20062;-60
2021/04/17 02:30:49;;;;;;;5.28;1.60;;;6.30;99.90;;;;;;3606749;39;20042;-60
2021/04/17 02:33:15;;;;;;;2.72;1.45;;;6.30;99.90;;;;;;3607288;39;20967;-60
2021/04/17 02:35:41;;;;;;;4.60;1.73;;;6.30;99.90;;;;;;3608060;39;20031;-60
2021/04/17 02:38:07;;;;;;;2.95;1.30;;;6.40;99.90;;;;;;3608587;39;20023;-60
2021/04/17 02:40:33;;;;;;;3.10;1.38;;;6.40;99.90;;;;;;3609154;39;20035;-60
2021/04/17 02:42:58;;;;;;;3.10;1.30;;;6.30;99.90;;;;;;3608062;39;20039;-60
2021/04/17 02:45:24;;;;;;;4.88;1.50;;;6.20;99.90;;;;;;3605902;39;20038;-60
2021/04/17 02:47:50;;;;;;;2.97;1.67;;;6.20;99.90;;;;;;3601759;39;20032;-60
2021/04/17 02:50:15;;;;;;;5.97;1.65;;;6.20;99.90;;;;;;3603348;39;20309;-60
2021/04/17 02:52:41;;;;;;;4.05;1.40;;;6.20;99.90;;;;;;3605508;39;20690;-60
2021/04/17 02:55:08;;;;;;;4.10;1.48;;;6.30;99.90;;;;;;3605756;39;20624;-60
2021/04/17 02:57:34;;;;;;;4.53;1.60;;;6.30;99.90;;;;;;3606297;39;20039;-60
2021/04/17 03:00:00;;;;;;;7.70;1.90;;;6.40;99.90;;;;;;3602297;39;20708;-60
2021/04/17 03:02:26;;;;;;;5.55;1.67;;;6.40;99.90;;;;;;3601533;39;20095;-62
2021/04/17 03:04:51;;;;;;;7.88;1.60;;;6.30;99.90;;;;;;3603847;39;20624;-66
2021/04/17 03:07:17;;;;;;;5.88;1.42;;;6.30;99.90;;;;;;3605299;39;20032;-65
2021/04/17 03:09:43;;;;;;;5.25;1.73;;;6.30;99.90;;;;;;3603267;39;20065;-66
2021/04/17 03:12:09;;;;;;;2.28;1.42;;;6.40;99.90;;;;;;3602709;39;20098;-66
2021/04/17 03:14:36;;;;;;;5.60;1.65;;;6.40;99.90;;;;;;3603757;39;20160;-66
2021/04/17 03:17:01;;;;;;;6.72;1.60;;;6.50;99.90;;;;;;3606291;39;20039;-67
2021/04/17 03:19:27;;;;;;;3.70;1.40;;;6.40;99.90;;;;;;3602623;39;20089;-67
2021/04/17 03:21:54;;;;;;;5.50;1.63;;;6.40;99.90;;;;;;3603437;39;20079;-67
2021/04/17 03:24:19;;;;;;;3.25;1.70;;;6.50;99.90;;;;;;3603804;39;20027;-67
2021/04/17 03:26:45;;;;;;;3.92;1.40;;;6.50;99.90;;;;;;3604250;39;20053;-67
2021/04/17 03:29:11;;;;;;;4.45;1.45;;;6.50;99.90;;;;;;3607018;39;20038;-67
2021/04/17 03:31:36;;;;;;;4.20;1.17;;;6.50;99.90;;;;;;3598584;39;20039;-67
2021/04/17 03:34:02;;;;;;;8.98;1.30;;;6.50;99.90;;;;;;3601483;39;20790;-68
2021/04/17 03:36:28;;;;;;;4.03;1.70;;;6.50;99.90;;;;;;3602168;39;20079;-69
2021/04/17 03:38:54;;;;;;;2.92;1.30;;;6.50;99.90;;;;;;3604824;39;20390;-67
2021/04/17 03:41:20;;;;;;;6.38;1.60;;;6.40;99.90;;;;;;3603623;39;20102;-67
2021/04/17 03:43:46;;;;;;;5.00;1.67;;;6.30;99.90;;;;;;3604921;39;20032;-67
2021/04/17 03:46:12;;;;;;;8.13;1.60;;;6.20;99.90;;;;;;3603046;39;20042;-67
2021/04/17 03:48:38;;;;;;;3.05;1.45;;;6.30;99.90;;;;;;3605097;39;20090;-67
2021/04/17 03:51:04;;;;;;;8.80;1.45;;;6.30;99.90;;;;;;3602503;39;20091;-67
2021/04/17 03:53:29;;;;;;;4.13;1.50;;;6.30;99.90;;;;;;3602087;39;20108;-67
2021/04/17 03:55:55;;;;;;;3.80;1.30;;;6.40;99.90;;;;;;3605141;39;20035;-67
2021/04/17 03:58:21;;;;;;;5.13;1.73;;;6.40;99.90;;;;;;3601073;39;20028;-67
2021/04/17 04:00:47;;;;;;;8.10;1.63;;;6.40;99.90;;;;;;3601136;39;20040;-67
2021/04/17 04:03:12;;;;;;;4.53;1.70;;;6.40;99.90;;;;;;3603416;39;20154;-67
2021/04/17 04:05:38;;;;;;;6.05;1.70;;;6.40;99.90;;;;;;3603974;39;20408;-67
2021/04/17 04:08:04;;;;;;;3.15;1.45;;;6.40;99.90;;;;;;3599614;39;20088;-67
2021/04/17 04:10:30;;;;;;;6.65;1.73;;;6.40;99.90;;;;;;3602491;39;20331;-67
2021/04/17 04:12:56;;;;;;;6.50;1.73;;;6.50;99.90;;;;;;3600091;39;20031;-67
2021/04/17 04:15:21;;;;;;;7.70;1.83;;;6.50;99.90;;;;;;3601728;39;20076;-67
2021/04/17 04:17:47;;;;;;;3.33;1.40;;;6.50;99.90;;;;;;3601300;39;20036;-67
2021/04/17 04:20:13;;;;;;;7.50;2.00;;;6.50;99.90;;;;;;3602465;39;20522;-67
2021/04/17 04:22:40;;;;;;;13.55;2.28;;;6.50;99.90;;;;;;3603631;39;20140;-67
2021/04/17 04:25:07;;;;;;;5.82;1.55;;;6.50;99.90;;;;;;3603140;39;20019;-67
2021/04/17 04:27:33;;;;;;;6.45;2.00;;;6.50;99.90;;;;;;3601646;39;20047;-60
2021/04/17 04:29:59;;;;;;;5.22;1.80;;;6.40;99.90;;;;;;3605500;39;20032;-60
2021/04/17 04:32:25;;;;;;;10.43;2.35;;;6.40;99.90;;;;;;3604547;39;20684;-67
2021/04/17 04:34:51;;;;;;;8.75;2.22;;;6.50;99.90;;;;;;3603656;39;20062;-67
2021/04/17 04:37:17;;;;;;;6.25;1.80;;;6.50;99.90;;;;;;3602145;39;20530;-67
2021/04/17 04:39:42;;;;;;;5.10;1.50;;;6.50;99.90;;;;;;3600856;39;20031;-67
2021/04/17 04:42:09;;;;;;;3.78;1.85;;;6.50;99.90;;;;;;3603240;39;20039;-67
2021/04/17 04:44:36;;;;;;;5.00;1.60;;;6.50;99.90;;;;;;3599288;39;20039;-67
2021/04/17 04:47:02;;;;;;;6.70;1.92;;;6.50;99.90;;;;;;3603071;39;20510;-67
2021/04/17 04:49:28;;;;;;;7.03;1.67;;;6.40;99.90;;;;;;3603433;39;20042;-67
2021/04/17 04:51:54;;;;;;;5.75;1.80;;;6.40;99.90;;;;;;3603192;39;20043;-67
2021/04/17 04:54:20;;;;;;;6.30;1.90;;;6.40;99.90;;;;;;3600287;39;20040;-66
2021/04/17 04:56:45;;;;;;;4.68;1.85;;;6.40;99.90;;;;;;3605794;39;20128;-67
2021/04/17 04:59:11;;;;;;;7.38;1.73;;;6.30;99.90;;;;;;3605426;39;20522;-66
2021/04/17 05:01:37;;;;;;;7.80;2.00;;;6.20;99.90;;;;;;3605352;39;20330;-67
2021/04/17 05:04:03;;;;;;;4.85;1.70;;;6.20;99.90;;;;;;3602579;39;20075;-67
2021/04/17 05:06:28;;;;;;;6.88;1.50;;;6.20;99.90;;;;;;3600227;39;20034;-66
2021/04/17 05:08:54;;;;;;;4.57;1.80;;;6.10;99.90;;;;;;3601755;39;20027;-66
2021/04/17 05:11:20;;;;;;;3.47;1.50;;;6.10;99.90;;;;;;3598039;39;20035;-66
2021/04/17 05:13:45;;;;;;;3.92;1.85;;;6.10;99.90;;;;;;3601282;39;20040;-67
2021/04/17 05:16:13;;;;;;;3.38;1.88;;;6.20;99.90;;;;;;3601714;39;20028;-67
2021/04/17 05:18:39;;;;;;;6.20;2.10;;;6.20;99.90;;;;;;3603439;39;20868;-66
2021/04/17 05:21:05;;;;;;;4.97;1.98;;;6.40;99.90;;;;;;3602432;39;20035;-67
2021/04/17 05:23:30;;;;;;;9.77;2.67;;;6.50;99.90;;;;;;3602839;39;20043;-67
2021/04/17 05:25:56;;;;;;;7.50;2.60;;;6.70;99.90;;;;;;3602121;39;20149;-66
2021/04/17 05:28:22;;;;;;;8.27;2.40;;;6.80;99.90;;;;;;3601536;39;20089;-68
2021/04/17 05:30:47;;;;;;;8.85;2.50;;;7.00;99.90;;;;;;3606199;39;20043;-67
2021/04/17 05:33:13;;;;;;;7.93;2.90;;;6.90;99.90;;;;;;3606080;39;20082;-67
2021/04/17 05:35:39;;;;;;;8.07;2.38;;;7.00;99.90;;;;;;3602843;39;20847;-67
2021/04/17 05:38:04;;;;;;;13.25;2.38;;;7.00;99.90;;;;;;3602059;39;20050;-67
2021/04/17 05:40:30;;;;;;;5.13;2.35;;;7.00;99.90;;;;;;3602547;39;20514;-67
2021/04/17 05:42:56;;;;;;;10.63;2.88;;;7.00;99.90;;;;;;3603931;39;20308;-67
2021/04/17 05:45:22;;;;;;;9.13;2.63;;;7.20;99.90;;;;;;3602464;39;20410;-69
2021/04/17 05:47:47;;;;;;;9.70;3.28;;;7.20;99.90;;;;;;3603587;39;20035;-66
2021/04/17 05:50:13;;;;;;;8.02;2.72;;;7.10;99.90;;;;;;3603119;39;20039;-67
2021/04/17 05:52:39;;;;;;;7.50;2.65;;;7.10;99.90;;;;;;3604044;39;20035;-68
2021/04/17 05:55:06;;;;;;;5.45;2.33;;;7.10;99.90;;;;;;3602297;39;20128;-67
2021/04/17 05:57:32;;;;;;;6.53;2.80;;;7.00;99.90;;;;;;3601483;39;20043;-68
2021/04/17 05:59:57;;;;;;;6.38;2.38;;;7.00;99.90;;;;;;3604089;39;20028;-69
2021/04/17 06:02:24;;;;;;;11.40;2.90;;;7.10;99.90;;;;;;3604169;39;20046;-67
2021/04/17 06:04:50;;;;;;;6.03;2.42;;;7.10;99.90;;;;;;3599417;39;20027;-67
2021/04/17 06:07:15;;;;;;;6.78;3.10;;;7.10;99.90;;;;;;3605828;39;20096;-67
2021/04/17 06:09:41;;;;;;;7.63;2.60;;;7.10;99.90;;;;;;3602324;39;20816;-67
2021/04/17 06:12:07;;;;;;;5.82;2.53;;;7.20;99.90;;;;;;3605329;39;20568;-67
2021/04/17 06:14:33;;;;;;;14.43;4.30;;;7.20;99.90;;;;;;3604641;39;20128;-67
2021/04/17 06:16:59;;;;;;;17.23;11.00;;;7.20;99.90;;;;;;3603146;39;20036;-67
2021/04/17 06:19:24;;;;;;;12.80;4.75;;;7.20;99.90;;;;;;3603401;39;20494;-67
2021/04/17 06:21:50;;;;;;;6.35;3.42;;;7.20;99.90;;;;;;3602538;39;20069;-68
2021/04/17 06:24:16;;;;;;;15.18;7.43;;;7.30;99.90;;;;;;3601682;39;20104;-67
2021/04/17 06:26:42;;;;;;;8.10;4.15;;;7.40;99.90;;;;;;3603616;39;20051;-68
2021/04/17 06:29:08;;;;;;;16.55;7.03;;;7.40;99.90;;;;;;3599892;39;20434;-67
2021/04/17 06:31:34;;;;;;;34.65;13.68;;;7.40;99.90;;;;;;3600149;39;20028;-68
2021/04/17 06:33:59;;;;;;;8.93;3.42;;;7.30;99.90;;;;;;3602454;39;20047;-68
2021/04/17 06:36:25;;;;;;;5.70;2.45;;;7.30;99.90;;;;;;3605090;39;20725;-68
2021/04/17 06:38:51;;;;;;;8.13;2.67;;;7.40;99.90;;;;;;3598976;39;20411;-68
2021/04/17 06:41:20;;;;;;;7.25;2.78;;;7.40;99.90;;;;;;3601189;39;20712;-68
2021/04/17 06:43:48;;;;;;;7.43;2.80;;;7.30;99.90;;;;;;3601596;39;20036;-67
2021/04/17 06:46:15;;;;;;;5.95;2.03;;;7.30;99.90;;;;;;3601270;39;20028;-66
2021/04/17 06:48:42;;;;;;;7.63;3.00;;;7.20;99.90;;;;;;3606415;39;20055;-67
2021/04/17 06:51:17;;;;;;;7.82;2.83;;;7.30;99.90;;;;;;3605967;39;20433;-67
2021/04/17 06:53:44;;;;;;;6.93;2.00;;;7.30;99.90;;;;;;3604764;39;20035;-67
2021/04/17 06:56:10;;;;;;;5.90;2.90;;;7.40;99.90;;;;;;3607823;39;20039;-70
2021/04/17 06:58:39;;;;;;;4.03;1.83;;;7.50;99.90;;;;;;3605307;39;20032;-69
2021/04/17 07:01:06;;;;;;;3.50;1.83;;;7.60;99.90;;;;;;3607711;39;20039;-71
2021/04/17 07:03:32;;;;;;;8.02;2.00;;;7.70;99.90;;;;;;3606815;39;20070;-69
2021/04/17 07:05:58;;;;;;;7.32;1.95;;;7.80;99.90;;;;;;3604801;39;20044;-62
2021/04/17 07:08:24;;;;;;;4.70;2.17;;;7.90;99.90;;;;;;3604828;39;20067;-61
2021/04/17 07:10:50;;;;;;;7.47;2.30;;;7.80;99.90;;;;;;3607109;39;20038;-62
2021/04/17 07:13:17;;;;;;;8.02;2.88;;;7.80;99.90;;;;;;3605159;39;20235;-61
2021/04/17 07:15:44;;;;;;;4.13;1.85;;;7.80;99.90;;;;;;3603685;39;20040;-61
2021/04/17 07:18:25;;;;;;;4.20;1.40;;;7.80;99.90;;;;;;3604097;39;20135;-61
2021/04/17 07:20:52;;;;;;;10.35;2.10;;;7.80;99.90;;;;;;3604601;39;20071;-61
2021/04/17 07:23:30;;;;;;;5.90;1.60;;;7.90;99.90;;;;;;3604762;39;20122;-61
2021/04/17 07:26:12;;;;;;;5.25;1.60;;;7.80;99.90;;;;;;3606435;39;20675;-61
2021/04/17 07:28:40;;;;;;;9.50;1.38;;;7.70;99.90;;;;;;3604149;39;20120;-61
2021/04/17 07:31:07;;;;;;;5.38;1.60;;;7.80;99.90;;;;;;3607033;39;20024;-61
2021/04/17 07:33:33;;;;;;;4.50;1.60;;;7.80;99.90;;;;;;3608631;39;20046;-61
2021/04/17 07:36:03;;;;;;;4.13;1.50;;;7.90;99.90;;;;;;3603405;39;20562;-61
2021/04/17 07:38:36;;;;;;;4.22;1.67;;;7.90;99.90;;;;;;3600116;39;20033;-61
2021/04/17 07:41:15;;;;;;;7.30;2.45;;;8.00;99.90;;;;;;3605351;39;20119;-61
2021/04/17 07:43:44;;;;;;;12.93;3.80;;;8.10;99.90;;;;;;3603329;39;20061;-61
2021/04/17 07:46:10;;;;;;;9.13;2.28;;;8.10;99.90;;;;;;3603887;39;20023;-61
2021/04/17 07:48:36;;;;;;;5.30;1.98;;;8.00;99.90;;;;;;3601290;39;20450;-61
2021/04/17 07:51:04;;;;;;;6.55;1.75;;;8.10;99.90;;;;;;3603187;39;20790;-61
2021/04/17 07:53:38;;;;;;;8.15;2.78;;;8.20;99.90;;;;;;3602639;39;20032;-61
2021/04/17 07:56:22;;;;;;;9.98;3.15;;;8.40;99.90;;;;;;3601181;39;20464;-61
2021/04/17 07:58:50;;;;;;;13.45;4.18;;;8.60;99.90;;;;;;3605306;39;20084;-61
2021/04/17 08:01:17;;;;;;;6.63;2.38;;;8.70;99.90;;;;;;3606513;39;20085;-61
2021/04/17 08:03:45;;;;;;;6.45;1.88;;;8.70;99.90;;;;;;3607933;39;20343;-62
2021/04/17 08:06:13;;;;;;;9.70;2.25;;;8.80;99.90;;;;;;3605113;39;20039;-61
2021/04/17 08:08:40;;;;;;;8.25;2.42;;;8.90;99.90;;;;;;3604622;39;20177;-61
2021/04/17 08:11:08;;;;;;;9.75;2.35;;;8.90;99.90;;;;;;3603748;39;20778;-61
2021/04/17 08:13:38;;;;;;;10.23;2.25;;;9.10;99.90;;;;;;3600030;39;20319;-61
2021/04/17 08:16:04;;;;;;;7.45;1.83;;;9.30;99.50;;;;;;3601377;39;20059;-60
2021/04/17 08:18:30;;;;;;;4.85;1.88;;;9.00;99.90;;;;;;3602328;39;20427;-62
2021/04/17 08:20:56;;;;;;;8.90;1.85;;;8.90;99.90;;;;;;3601731;39;20028;-62
2021/04/17 08:23:22;;;;;;;5.57;1.45;;;8.80;99.90;;;;;;3600083;39;20071;-62
2021/04/17 08:25:53;;;;;;;6.78;1.52;;;8.90;99.90;;;;;;3600945;39;20412;-62
2021/04/17 08:28:21;;;;;;;7.53;2.30;;;9.10;99.90;;;;;;3599028;39;20043;-61
2021/04/17 08:30:47;;;;;;;6.50;1.70;;;9.30;99.70;;;;;;3597865;39;20043;-61
2021/04/17 08:33:19;;;;;;;8.20;2.08;;;9.20;99.80;;;;;;3599677;39;20036;-62
2021/04/17 08:35:45;;;;;;;5.65;2.50;;;9.20;99.50;;;;;;3598929;39;20073;-62
2021/04/17 08:38:13;;;;;;;10.75;4.10;;;9.10;99.90;;;;;;3599513;39;20824;-62
2021/04/17 08:40:43;;;;;;;7.88;1.90;;;9.30;99.90;;;;;;3599997;39;20046;-63
2021/04/17 08:43:18;;;;;;;4.68;2.20;;;9.20;99.80;;;;;;3600511;39;20834;-62
2021/04/17 08:46:12;;;;;;;5.20;1.70;;;9.50;99.60;;;;;;3599682;39;20780;-62
2021/04/17 08:48:47;;;;;;;5.57;1.70;;;9.70;99.00;;;;;;3601460;39;20810;-62
2021/04/17 08:51:39;;;;;;;12.17;3.50;;;9.90;98.60;;;;;;3601209;39;20044;-61
2021/04/17 08:54:05;;;;;;;9.02;1.60;;;10.20;98.50;;;;;;3598864;39;20047;-61
2021/04/17 08:56:49;;;;;;;5.68;1.65;;;10.40;97.80;;;;;;3598688;39;20105;-62
2021/04/17 08:59:24;;;;;;;8.63;2.08;;;10.40;98.10;;;;;;3604362;39;20119;-62
2021/04/17 09:01:51;;;;;;;11.73;2.05;;;10.70;97.60;;;;;;3605960;39;20701;-62
2021/04/17 09:04:17;;;;;;;10.18;2.70;;;10.50;97.60;;;;;;3602357;39;20094;-61
2021/04/17 09:06:49;;;;;;;4.45;1.63;;;10.50;97.50;;;;;;3599635;39;20483;-62
2021/04/17 09:09:15;;;;;;;14.25;1.98;;;10.70;97.50;;;;;;3601271;39;20178;-62
2021/04/17 09:11:45;;;;;;;7.70;2.40;;;10.80;97.00;;;;;;3603345;39;20587;-61
2021/04/17 09:14:26;;;;;;;8.85;2.03;;;10.90;97.00;;;;;;3600483;39;20079;-62
2021/04/17 09:16:54;;;;;;;10.05;2.15;;;11.00;97.20;;;;;;3601213;39;20084;-62
2021/04/17 09:19:38;;;;;;;6.72;1.70;;;10.70;97.90;;;;;;3602198;39;20040;-61
2021/04/17 09:22:27;;;;;;;9.50;1.90;;;10.80;97.20;;;;;;3603778;39;20058;-62
2021/04/17 09:25:08;;;;;;;11.43;2.67;;;11.00;97.20;;;;;;3601353;39;20085;-62
2021/04/17 09:27:44;;;;;;;5.95;1.77;;;11.10;97.00;;;;;;3595994;39;20088;-62
2021/04/17 09:30:09;;;;;;;10.00;2.17;;;11.10;96.60;;;;;;3600613;39;20071;-62
2021/04/17 09:32:48;;;;;;;5.65;2.75;;;10.80;97.60;;;;;;3597494;39;20036;-62
2021/04/17 09:35:16;;;;;;;11.68;1.83;;;11.10;97.60;;;;;;3600184;39;20032;-62
2021/04/17 09:37:47;;;;;;;8.25;1.75;;;11.00;97.30;;;;;;3601044;39;20043;-62
2021/04/17 09:40:13;;;;;;;6.03;2.17;;;11.30;96.40;;;;;;3600246;39;20048;-62
2021/04/17 09:42:40;;;;;;;7.45;2.30;;;11.30;97.00;;;;;;3601033;39;20042;-61
2021/04/17 09:45:11;;;;;;;5.38;1.70;;;11.70;96.30;;;;;;3602955;39;20110;-62
2021/04/17 09:47:57;;;;;;;4.88;1.92;;;12.00;95.30;;;;;;3602978;39;20052;-62
2021/04/17 09:50:25;;;;;;;10.48;2.22;;;12.10;95.30;;;;;;3602732;39;20148;-62
2021/04/17 09:52:52;;;;;;;8.13;1.98;;;12.10;96.00;;;;;;3604614;39;20648;-62
2021/04/17 09:55:18;;;;;;;7.32;2.30;;;12.20;95.20;;;;;;3601413;39;20042;-62
2021/04/17 09:57:46;;;;;;;10.07;1.92;;;12.20;95.20;;;;;;3598058;39;20043;-62
2021/04/17 10:00:12;;;;;;;4.63;1.65;;;12.40;95.20;;;;;;3598584;39;20039;-62
2021/04/17 10:02:45;;;;;;;6.82;1.83;;;12.50;94.70;;;;;;3598844;39;20035;-62
2021/04/17 10:05:12;;;;;;;9.20;2.08;;;12.50;95.30;;;;;;3605712;39;20042;-62
2021/04/17 10:07:45;;;;;;;4.53;1.60;;;12.90;95.90;;;;;;3603386;39;20052;-62
2021/04/17 10:10:12;;;;;;;6.88;1.98;;;13.30;93.60;;;;;;3602157;39;20036;-62
2021/04/17 10:12:48;;;;;;;8.93;2.08;;;13.70;92.20;;;;;;3602553;39;20031;-62
2021/04/17 10:15:22;;;;;;;5.57;2.03;;;14.00;91.80;;;;;;3601991;39;20036;-63
2021/04/17 10:17:52;;;;;;;9.25;2.13;;;14.00;90.50;;;;;;3600406;39;20051;-62
2021/04/17 10:20:19;;;;;;;9.00;2.40;;;13.90;91.00;;;;;;3602384;39;20394;-62
2021/04/17 10:22:52;;;;;;;6.22;1.98;;;13.80;88.80;;;;;;3595559;39;20047;-62
2021/04/17 10:25:40;;;;;;;10.98;2.60;;;13.90;90.10;;;;;;3604447;39;20031;-62
2021/04/17 10:28:17;;;;;;;5.65;2.10;;;13.60;91.30;;;;;;3598719;39;20077;-66
2021/04/17 10:30:46;;;;;;;8.43;2.33;;;13.80;90.70;;;;;;3604567;39;20115;-62
2021/04/17 10:33:24;;;;;;;10.05;2.88;;;14.20;90.20;;;;;;3607219;39;20439;-62
2021/04/17 10:35:51;;;;;;;15.32;2.70;;;14.30;89.40;;;;;;3602825;39;20067;-62
2021/04/17 10:38:39;;;;;;;7.05;2.80;;;14.60;88.70;;;;;;3599500;39;20050;-62
2021/04/17 10:41:05;;;;;;;9.70;2.70;;;14.90;85.80;;;;;;3603671;39;20102;-63
2021/04/17 10:43:32;;;;;;;8.13;2.47;;;14.70;87.70;;;;;;3604570;39;20380;-62
2021/04/17 10:46:03;;;;;;;9.05;3.13;;;14.60;85.00;;;;;;3605446;39;20043;-62
2021/04/17 10:48:41;;;;;;;6.78;2.22;;;14.70;86.70;;;;;;3606156;39;20062;-62
2021/04/17 10:51:13;;;;;;;8.23;2.60;;;14.90;85.20;;;;;;3601926;39;20035;-62
2021/04/17 10:53:42;;;;;;;10.13;3.63;;;14.70;83.00;;;;;;3601439;39;20039;-62
2021/04/17 10:56:22;;;;;;;13.15;3.42;;;14.40;86.80;;;;;;3606505;39;20084;-62
2021/04/17 10:59:04;;;;;;;10.50;2.83;;;14.20;90.10;;;;;;3609246;39;20600;-62
2021/04/17 11:01:36;;;;;;;7.25;2.50;;;14.70;87.20;;;;;;3606356;39;20039;-63
2021/04/17 11:04:04;;;;;;;116.03;47.90;;;14.80;86.90;;;;;;3600646;39;20111;-63
2021/04/17 11:06:33;;;;;;;11.93;5.40;;;14.50;90.40;;;;;;3600344;39;20047;-71
2021/04/17 11:09:12;;;;;;;344.23;163.70;;;14.90;88.20;;;;;;3602609;39;20031;-69
2021/04/17 11:12:00;;;;;;;9.70;4.18;;;15.20;87.10;;;;;;3601940;39;20869;-70
2021/04/17 11:14:28;;;;;;;74.30;41.35;;;15.30;83.70;;;;;;3603541;39;20824;-69
2021/04/17 11:16:55;;;;;;;26.55;12.95;;;15.60;86.10;;;;;;3602040;39;20035;-65
2021/04/17 11:19:37;;;;;;;9.77;3.75;;;15.60;85.20;;;;;;3602888;39;20051;-69
2021/04/17 11:22:13;;;;;;;11.45;3.33;;;15.60;82.70;;;;;;3606485;39;20416;-71
2021/04/17 11:24:56;;;;;;;11.82;3.25;;;15.40;84.70;;;;;;3607811;39;20039;-62
2021/04/17 11:27:22;;;;;;;16.17;4.40;;;15.20;84.80;;;;;;3608705;39;20043;-63
2021/04/17 11:29:48;;;;;;;8.38;3.50;;;15.70;83.90;;;;;;3607320;39;20034;-61
2021/04/17 11:32:13;;;;;;;9.40;3.60;;;16.00;78.60;;;;;;3603344;39;20677;-61
2021/04/17 11:34:43;;;;;;;7.30;3.15;;;16.00;79.70;;;;;;3603140;39;20042;-62
2021/04/17 11:37:09;;;;;;;9.57;3.50;;;16.40;78.00;;;;;;3604994;39;20623;-62
2021/04/17 11:39:35;;;;;;;8.95;3.10;;;16.60;79.30;;;;;;3600785;39;20031;-61
2021/04/17 11:42:00;;;;;;;13.05;3.92;;;16.60;76.00;;;;;;3603711;39;20035;-62
2021/04/17 11:44:26;;;;;;;10.30;3.55;;;16.50;74.90;;;;;;3603458;39;20050;-62
2021/04/17 11:46:52;;;;;;;24.00;4.65;;;16.50;76.70;;;;;;3601996;39;20058;-62
2021/04/17 11:49:17;;;;;;;10.63;3.90;;;16.90;77.10;;;;;;3603570;39;20036;-62
2021/04/17 11:51:43;;;;;;;9.52;3.30;;;17.40;74.10;;;;;;3605304;39;20039;-62
2021/04/17 11:54:09;;;;;;;11.82;3.40;;;17.40;72.30;;;;;;3601046;39;20050;-62
2021/04/17 11:56:36;;;;;;;9.82;3.47;;;17.10;72.60;;;;;;3600484;39;20035;-62
2021/04/17 11:59:02;;;;;;;7.90;3.50;;;17.20;70.10;;;;;;3598110;39;20528;-62
2021/04/17 12:01:28;;;;;;;12.35;3.42;;;17.10;72.30;;;;;;3601448;39;20052;-62
2021/04/17 12:03:54;;;;;;;8.27;3.40;;;17.00;70.80;;;;;;3604053;39;20495;-62
2021/04/17 12:06:23;;;;;;;11.20;3.63;;;16.90;71.20;;;;;;3601537;39;20585;-61
2021/04/17 12:08:49;;;;;;;9.63;3.67;;;16.40;73.90;;;;;;3602084;39;20035;-62
2021/04/17 12:11:14;;;;;;;11.13;4.28;;;15.50;77.70;;;;;;3602327;39;20080;-63
2021/04/17 12:13:40;;;;;;;10.90;3.55;;;16.00;78.10;;;;;;3603958;39;20032;-62
2021/04/17 12:16:06;;;;;;;9.63;3.80;;;15.80;77.30;;;;;;3600647;39;20051;-62
2021/04/17 12:18:32;;;;;;;7.03;3.10;;;15.80;77.50;;;;;;3602118;39;20047;-63
2021/04/17 12:20:58;;;;;;;12.75;3.97;;;15.90;79.70;;;;;;3604411;39;20066;-68
2021/04/17 12:23:23;;;;;;;6.70;3.60;;;16.30;76.50;;;;;;3604270;39;20041;-68
2021/04/17 12:25:49;;;;;;;13.70;3.92;;;16.20;78.70;;;;;;3601913;39;20055;-68
2021/04/17 12:28:16;;;;;;;9.38;3.53;;;16.40;75.40;;;;;;3607752;39;20293;-68
2021/04/17 12:30:42;;;;;;;9.18;3.63;;;16.20;78.50;;;;;;3606815;39;20135;-68
2021/04/17 12:33:08;;;;;;;12.07;3.58;;;16.00;77.50;;;;;;3604270;39;20401;-68
2021/04/17 12:35:36;;;;;;;17.23;4.32;;;15.70;78.80;;;;;;3605216;39;20090;-62
2021/04/17 12:38:02;;;;;;;11.38;4.70;;;15.60;80.90;;;;;;3602371;39;20035;-62
2021/04/17 12:40:27;;;;;;;13.13;3.67;;;15.60;80.10;;;;;;3600928;39;20068;-62
2021/04/17 12:42:53;;;;;;;11.40;4.10;;;15.60;81.90;;;;;;3603004;39;20725;-61
2021/04/17 12:45:20;;;;;;;11.05;4.15;;;15.50;85.40;;;;;;3602774;39;20047;-62
2021/04/17 12:47:46;;;;;;;11.57;4.60;;;16.40;81.70;;;;;;3603819;39;20201;-61
2021/04/17 12:50:12;;;;;;;8.63;3.50;;;17.40;74.80;;;;;;3605094;39;20555;-62
2021/04/17 12:52:39;;;;;;;10.48;3.78;;;18.20;69.80;;;;;;3606475;39;20094;-62
2021/04/17 12:55:06;;;;;;;12.73;3.70;;;18.90;66.10;;;;;;3605195;39;20057;-62
2021/04/17 12:57:32;;;;;;;9.05;3.42;;;18.40;68.60;;;;;;3600587;39;20136;-62